This is the latest recevied weather packets stored in our database for station/object KO5S. If no packets are shown the sender has not sent any weather packets the latest 10 day(s).
| Time | Temp. | Humidity | Pressure | Rain* | Wind** | Luminosity | Snow |
|---|---|---|---|---|---|---|---|
| 1777799296 | 7.78° C | 92% | 1015.9 hPa | 0 mm | - | - | - |
| 1777790896 | 8.33° C | 90% | 1015.2 hPa | 0 mm | - | - | - |
| 1777784937 | 10° C | 88% | 1014.9 hPa | 0 mm | - | - | - |
| 1777778896 | 12.22° C | 81% | 1014.3 hPa | 0 mm | - | - | - |
| 1777777096 | 13.33° C | 79% | 1014 hPa | 0 mm | - | - | - |
| 1777776496 | 13.33° C | 78% | 1013.9 hPa | 0 mm | - | - | - |
| 1777771695 | 15° C | 69% | 1013 hPa | 0 mm | - | - | - |
| 1777768095 | 18.33° C | 56% | 1011.9 hPa | 0 mm | - | - | - |
| 1777766295 | 20° C | 50% | 1011.7 hPa | 0 mm | - | - | - |
| 1777765695 | 20° C | 50% | 1011.5 hPa | 0 mm | - | - | - |
| 1777765096 | 20.56° C | 49% | 1011.2 hPa | 0 mm | - | - | - |
| 1777761497 | 21.67° C | 44% | 1010.6 hPa | 0 mm | - | - | - |
| 1777759095 | 22.22° C | 45% | 1010.2 hPa | 0 mm | - | - | - |
| 1777754895 | 22.78° C | 48% | 1010 hPa | 0 mm | - | - | - |
| 1777753696 | 22.78° C | 52% | 1010.1 hPa | 0 mm | - | - | - |
| 1777746496 | 21.67° C | 68% | 1010.9 hPa | 0 mm | - | - | - |
| 1777736315 | 17.22° C | 87% | 1011.5 hPa | 0 mm | - | - | - |
| 1777735095 | 16.11° C | 89% | 1011.2 hPa | 0 mm | - | - | - |
| 1777731495 | 14.44° C | 92% | 1010.9 hPa | 0 mm | - | - | - |
| 1777730895 | 13.89° C | 93% | 1010.7 hPa | 0 mm | - | - | - |
| 1777721895 | 12.22° C | 93% | 1009.6 hPa | 0.25 mm | - | - | - |
| 1777720695 | 12.22° C | 93% | 1009.4 hPa | 0 mm | - | - | - |
| 1777718895 | 12.22° C | 93% | 1009 hPa | 0 mm | - | - | - |
| 1777712295 | 11.67° C | 93% | 1009 hPa | 1.78 mm | - | - | - |
| 1777706897 | 12.22° C | 93% | 1007.6 hPa | 3.81 mm | - | - | - |
* Rain latest hour (hover to see other rain measurements)
** Current wind speed in m/s (hover to see current wind gust speed)